Air Sicilia Virtual Airways - Route

Air Sicilia Virtual Airways - SIC021C

( IT ) LIRF - 12:45
Leonardo da Vinci (Fiumicino) International Airport
ROME ( FCO )
plane_to ( BE ) EBBR - 14:44
Brussels Airport
BRUSSELS ( BRU )

AIRPORT NEAR NAVIGATION AIDS

Type Name Frequency
NDB Fiumicino 354 KHZ
NDB Fiumicino 421 KHZ
NDB Fiumicino 345 KHZ
VOR-DME Ostia 114900 KHZ
NDB Ostia 321 KHZ

METAR / TAF
LIRF 181520Z 08008KT 050V110 9999 TS FEW020CB FEW025 28/18 Q1016 TEMPO 4000 TSRA
LIRF 181100Z 1812/1918 28012KT 9999 SCT030 TEMPO 1812/1816 TSRA BECMG 1817/1819 VRB04KT BECMG 1908/1910 28012KT

RUNWAY INFORMATION

Runway Runway length Runway width Runway elevation Runway displaced threshold Runway heading
07 10849 148 7 1365 70
25 10849 148 7 0 250
16C 11818 148 11 0 163
34C 11818 148 4 0 343
16L 12795 197 14 0 163
34R 12795 197 7 0 343
16R 12795 197 7 0 163
34L 12795 197 8 1053 343

AIRPORT FREQUENCIES

Type Name Frequency
ARR ROMA DIREC 119.2 MHZ
ATIS ATIS 114.9 MHZ
CLD FIUME RAMP 121.725 MHZ
GND FIUME GND/ 121.8 MHZ
TWR FIUME TWR 118.7 MHZ

AIRPORT NEAR NAVIGATION AIDS

Type Name Frequency
VOR-DME Affligem 114900 KHZ
VOR-DME Brussels 114600 KHZ
VOR-DME Bruno 110600 KHZ
NDB Brussels 293 KHZ
NDB Brussels 314 KHZ

METAR / TAF
EBBR 181520Z 24007KT 200V270 9999 FEW037 BKN042 21/14 Q1022 NOSIG
EBBR 181100Z 1812/1918 22006KT 9999 FEW020 SCT035= EDDF 181100Z 1812/1918 33006KT CAVOK BECMG 1820/1822 04004KT BECMG 1908/1910 24007KT

RUNWAY INFORMATION

Runway Runway length Runway width Runway elevation Runway displaced threshold Runway heading
01 9800 164 183 151 14
19 9800 164 113 571 194
07L 11936 148 129 846 65
25R 11936 148 110 984 245
07R 10535 148 175 400 70
25L 10535 148 159 0 250

AIRPORT FREQUENCIES

Type Name Frequency
APP APP 118.25 MHZ
ATIS ATIS DEP 121.75 MHZ
ATIS ATIS ARR 132.475 MHZ
CLD CLNC DEL 121.95 MHZ
DEP DEP 126.625 MHZ
GND GND North 118.05 MHZ
GND GND South 121.875 MHZ
OPS MELSBROEK 140.575 MHZ
TWR TWR (RWY 0 118.6 MHZ
TWR TWR (RWY 0 120.775 MHZ
UNIC ABELAG UNI 130.55 MHZ

Flightplan

SOVAN DCT OKBIS Z806 GAVRA Z306 UNIMI UL12 MOGTI UP66 KPT UL608 TEDGO UZ210 LIRSU UL608 BATTY

Air Sicilia Virtual Airways Fleets

AVAILABLE AIRCRAFTS for route at this time in Leonardo da Vinci (Fiumicino) International Airport
A320 - Airbus A320
( UE ) AIRBUS

Aircraft in fleet: 2

B738 - Boeing 737-800 NGX
( US ) BOEING

Aircraft in fleet: 3

B739 - Boeing 737-900 NGX
( US ) BOEING

Aircraft in fleet: 4

633.86 NM

Distance in nautical miles.

€ 180,00

Ticket price for this flight.

1.55 h.

Estimated flight time.



07-08-2018
Aerosoft Professional Flight Planner PFPX

PFPX - Professional Flight Planner X - è un nuovo ed innovativo strumento di pianificazione del volo sviluppato da piloti e dispatcher del mondo reale. È un'aggiunta preziosa e realistica alla tua esperienza di simulaz ....


19-07-2018
Aerosoft Oslo X

L'Aeroporto di Oslo-Gardermoen (IATA: OSL, ICAO: ENGM) è il principale aeroporto norvegese e il 19° in Europa, è situato vicino alla cittadina di Ullensaker nella contea di Akershus e serve la capitale Oslo. Ha sostit ....


21-06-2018
Aerosoft Malpensa Professional P3Dv4

L'Aeroporto di Milano-Malpensa (IATA: MXP, ICAO: LIMC) è un aeroporto italiano situato nella provincia di Varese in Lombardia, ma considerato come il principale aeroporto di Milano.

È il secondo aeroporto ital ....


06-06-2018
1° Raduno Air Sicilia Virtual - parla il C.E.O.

Grande successo per il 1° Raduno di Compagnia dell'Air Sicilia Virtual, che ha visto i membri della Crew presenti il 4 giugno 2018 a Thiene ( VI ) , cimentarsi dal vivo con le reali ....


24-05-2018
Aerosoft Airport Rome XP

Tra le nostre recensioni non poteva mancare certo la nuova uscita Aerosoft per X-Plane, stiamo parlando di Airport Rome XP, finalmente un Add-on pay completo dell'Aeroporto di Roma Fiumicino per gli utilizzatori del simu ....